Time;durP1;ratioP1;P1;durP2;ratioP2;P2;SDS_P1;SDS_P2;PMS_P1;PMS_P2;Temp;Humidity;BMP_temperature;BMP_pressure;BME280_temperature;BME280_humidity;BME280_pressure;Samples;Min_cycle;Max_cycle;Signal;HPM_P1;HPM_P2
2022/08/23 00:02:06;;;;;;;34.00;32.40;;;24.30;57.50;;;;;;5072236;28;20380;-70
2022/08/23 00:04:35;;;;;;;35.10;33.50;;;24.30;57.50;;;;;;5072454;28;20395;-69
2022/08/23 00:07:03;;;;;;;32.95;31.42;;;24.30;58.10;;;;;;5072450;28;20380;-69
2022/08/23 00:09:28;;;;;;;33.70;32.10;;;24.30;57.50;;;;;;5072418;28;20404;-69
2022/08/23 00:12:07;;;;;;;34.97;33.27;;;24.30;57.50;;;;;;5071057;28;20410;-69
2022/08/23 00:14:35;;;;;;;35.92;34.25;;;24.30;57.60;;;;;;5072257;28;20376;-70
2022/08/23 00:17:01;;;;;;;34.95;33.33;;;24.30;57.50;;;;;;5074250;28;20393;-69
2022/08/23 00:19:27;;;;;;;35.85;34.17;;;24.30;57.50;;;;;;5074392;28;20417;-69
2022/08/23 00:21:54;;;;;;;33.42;31.92;;;24.30;57.60;;;;;;5092568;28;20421;-69
2022/08/23 00:24:21;;;;;;;35.40;33.75;;;24.30;57.60;;;;;;5074249;28;20394;-70
2022/08/23 00:26:50;;;;;;;33.42;31.92;;;24.30;57.60;;;;;;5092471;28;20382;-69
2022/08/23 00:29:17;;;;;;;33.90;32.30;;;24.20;57.60;;;;;;5092416;28;20776;-69
2022/08/23 00:31:43;;;;;;;34.90;33.30;;;24.30;57.70;;;;;;5092373;28;20393;-70
2022/08/23 00:34:08;;;;;;;35.43;33.80;;;24.20;57.60;;;;;;5092704;28;20386;-69
2022/08/23 00:36:34;;;;;;;33.55;32.05;;;24.30;57.70;;;;;;5092342;28;20390;-69
2022/08/23 00:39:00;;;;;;;34.75;33.10;;;24.30;57.60;;;;;;5092302;28;20427;-69
2022/08/23 00:41:27;;;;;;;33.50;31.90;;;24.30;57.60;;;;;;5092391;28;20422;-69
2022/08/23 00:49:54;;;;;;;33.80;32.20;;;24.20;57.50;;;;;;5057884;28;20410;-70
2022/08/23 00:52:30;;;;;;;32.85;31.35;;;24.30;57.60;;;;;;5092037;28;20424;-70
2022/08/23 00:54:57;;;;;;;31.90;30.40;;;24.20;57.50;;;;;;5091927;28;20395;-70
2022/08/23 00:57:23;;;;;;;33.75;32.15;;;24.20;57.50;;;;;;5092803;28;20381;-70
2022/08/23 00:59:48;;;;;;;32.33;30.83;;;24.20;57.60;;;;;;5091962;28;20389;-69
2022/08/23 01:02:15;;;;;;;39.03;37.23;;;24.20;57.60;;;;;;5091931;28;20386;-70
2022/08/23 01:04:47;;;;;;;36.53;34.83;;;24.20;57.50;;;;;;5073974;28;20393;-69
2022/08/23 01:07:22;;;;;;;35.58;33.92;;;24.20;57.60;;;;;;5091971;28;20382;-70
2022/08/23 01:09:50;;;;;;;34.35;32.75;;;24.20;57.60;;;;;;5091895;28;20425;-70
2022/08/23 01:12:45;;;;;;;37.22;35.53;;;24.20;57.60;;;;;;5091443;28;20390;-69
2022/08/23 01:15:19;;;;;;;34.00;32.40;;;24.20;57.60;;;;;;5091827;28;20785;-69
2022/08/23 01:17:53;;;;;;;35.65;34.05;;;24.20;57.60;;;;;;5091864;28;20854;-69
2022/08/23 01:20:23;;;;;;;33.72;32.13;;;24.20;57.60;;;;;;5073781;28;20481;-70
2022/08/23 01:22:59;;;;;;;34.88;33.28;;;24.20;57.60;;;;;;5073634;28;20443;-70
2022/08/23 01:25:27;;;;;;;34.95;33.35;;;24.20;57.60;;;;;;5091808;28;20390;-69
2022/08/23 01:27:53;;;;;;;37.03;35.33;;;24.20;57.50;;;;;;5091699;28;20378;-69
2022/08/23 01:30:22;;;;;;;36.63;34.93;;;24.20;57.60;;;;;;5091668;28;20410;-69
2022/08/23 01:32:59;;;;;;;34.72;33.13;;;24.20;57.60;;;;;;5073242;28;20476;-69
2022/08/23 01:35:44;;;;;;;37.53;35.72;;;24.20;57.60;;;;;;5091741;28;20447;-69
2022/08/23 01:38:10;;;;;;;37.20;35.50;;;24.20;57.60;;;;;;5091724;28;20378;-69
2022/08/23 01:40:37;;;;;;;36.75;35.05;;;24.20;57.70;;;;;;5073723;28;20748;-69
2022/08/23 01:43:04;;;;;;;36.38;34.67;;;24.20;57.70;;;;;;5073403;28;20895;-69
2022/08/23 01:45:30;;;;;;;35.33;33.63;;;24.20;57.70;;;;;;5091631;28;20393;-69
2022/08/23 01:47:56;;;;;;;38.17;36.47;;;24.20;57.70;;;;;;5073383;28;20416;-70
2022/08/23 01:50:24;;;;;;;35.95;34.25;;;24.20;57.80;;;;;;5091407;28;20406;-70
2022/08/23 01:52:49;;;;;;;38.17;36.42;;;24.20;57.70;;;;;;5073328;28;20385;-69
2022/08/23 01:55:16;;;;;;;35.03;33.42;;;24.20;57.80;;;;;;5073118;28;20417;-69
2022/08/23 01:57:44;;;;;;;35.72;34.13;;;24.20;57.80;;;;;;5091450;28;20378;-69
2022/08/23 02:00:10;;;;;;;33.35;31.77;;;24.20;57.80;;;;;;5073192;28;20386;-69
2022/08/23 02:02:36;;;;;;;35.00;33.40;;;24.20;57.80;;;;;;5073335;28;20378;-70
2022/08/23 02:05:06;;;;;;;35.28;33.67;;;24.10;57.70;;;;;;5073107;28;20449;-70
2022/08/23 02:07:32;;;;;;;33.58;32.05;;;24.10;57.60;;;;;;5091394;28;20386;-70
2022/08/23 02:09:57;;;;;;;38.25;36.45;;;24.20;57.70;;;;;;5091244;28;20910;-69
2022/08/23 02:12:23;;;;;;;34.07;32.43;;;24.10;57.70;;;;;;5091327;28;20465;-69
2022/08/23 02:14:49;;;;;;;33.15;31.65;;;24.10;57.70;;;;;;5091198;28;20405;-69
2022/08/23 02:17:15;;;;;;;34.70;33.03;;;24.10;57.70;;;;;;5091228;28;20389;-70
2022/08/23 02:19:42;;;;;;;33.93;32.33;;;24.10;57.80;;;;;;5073103;28;20521;-69
2022/08/23 02:22:09;;;;;;;34.33;32.65;;;24.10;57.80;;;;;;5091130;28;20393;-69
2022/08/23 02:24:39;;;;;;;35.42;33.83;;;24.10;57.80;;;;;;5091580;28;20386;-69
2022/08/23 02:27:05;;;;;;;34.33;32.72;;;24.10;57.80;;;;;;5076648;28;20386;-69
2022/08/23 02:29:34;;;;;;;33.38;31.80;;;24.10;57.80;;;;;;5094725;28;20489;-69
2022/08/23 02:32:00;;;;;;;33.53;31.95;;;24.10;57.80;;;;;;5094653;28;20386;-69
2022/08/23 02:34:26;;;;;;;33.67;32.08;;;24.10;57.80;;;;;;5094672;28;20386;-69
2022/08/23 02:36:52;;;;;;;34.15;32.55;;;24.10;57.80;;;;;;5094521;28;20394;-69
2022/08/23 02:39:18;;;;;;;35.73;34.03;;;24.10;57.80;;;;;;5094650;28;20379;-70
2022/08/23 02:41:43;;;;;;;33.60;32.00;;;24.10;57.80;;;;;;5076721;28;20397;-70
2022/08/23 02:44:10;;;;;;;37.03;35.22;;;24.10;57.80;;;;;;5094716;28;20429;-69
2022/08/23 02:46:37;;;;;;;36.38;34.58;;;24.10;57.80;;;;;;5094224;28;20427;-70
2022/08/23 02:49:03;;;;;;;37.43;35.70;;;24.10;57.80;;;;;;5093650;28;20439;-69
2022/08/23 02:51:29;;;;;;;34.92;33.33;;;24.10;57.80;;;;;;5094293;28;20740;-70
2022/08/23 02:53:55;;;;;;;35.00;33.33;;;24.10;57.80;;;;;;5094216;28;20409;-69
2022/08/23 02:56:21;;;;;;;34.17;32.58;;;24.10;57.80;;;;;;5094028;28;20402;-70
2022/08/23 02:58:48;;;;;;;33.67;32.08;;;24.00;57.80;;;;;;5076059;28;20387;-69
2022/08/23 03:01:16;;;;;;;34.15;32.55;;;24.10;57.80;;;;;;5093979;28;20736;-69
2022/08/23 03:03:42;;;;;;;35.35;33.70;;;24.00;57.80;;;;;;5075809;28;20394;-70
2022/08/23 03:06:08;;;;;;;33.08;31.58;;;24.00;57.80;;;;;;5093875;28;20390;-69
2022/08/23 03:08:34;;;;;;;34.92;33.03;;;24.00;58.00;;;;;;5094025;28;20406;-69
2022/08/23 03:11:00;;;;;;;35.28;33.28;;;24.00;58.50;;;;;;5075803;28;20425;-68
2022/08/23 03:13:26;;;;;;;42.25;39.88;;;24.10;58.50;;;;;;5094108;28;20379;-69
2022/08/23 03:15:51;;;;;;;46.27;43.47;;;24.20;59.70;;;;;;5094456;28;20898;-70
2022/08/23 03:18:17;;;;;;;43.28;40.97;;;24.20;60.10;;;;;;5093892;28;20386;-70
2022/08/23 03:20:43;;;;;;;46.93;44.33;;;24.20;59.30;;;;;;5093863;28;20875;-70
2022/08/23 03:23:10;;;;;;;46.83;44.28;;;24.20;60.30;;;;;;5093737;28;20813;-70
2022/08/23 03:25:36;;;;;;;46.53;44.17;;;24.20;60.20;;;;;;5093755;28;20390;-70
2022/08/23 03:28:06;;;;;;;51.45;47.85;;;24.20;60.10;;;;;;5093583;28;20378;-70
2022/08/23 03:30:33;;;;;;;49.78;46.95;;;24.30;60.60;;;;;;5093427;28;21049;-70
2022/08/23 03:33:00;;;;;;;52.75;49.85;;;24.30;60.60;;;;;;5093897;28;20374;-69
2022/08/23 03:35:26;;;;;;;48.30;45.55;;;24.30;61.00;;;;;;5075180;28;20393;-69
2022/08/23 03:37:53;;;;;;;49.85;46.80;;;24.40;60.90;;;;;;5075273;28;20405;-70
2022/08/23 03:40:19;;;;;;;41.28;38.63;;;24.40;61.20;;;;;;5093085;28;20477;-69
2022/08/23 03:42:45;;;;;;;43.58;40.92;;;24.50;61.20;;;;;;5093170;28;20465;-69
2022/08/23 03:45:11;;;;;;;44.93;42.43;;;24.40;60.60;;;;;;5093627;28;20755;-69
2022/08/23 03:47:37;;;;;;;43.90;40.97;;;24.40;60.60;;;;;;5093075;28;20378;-69
2022/08/23 03:50:03;;;;;;;42.85;40.58;;;24.40;61.10;;;;;;5092990;28;20410;-69
2022/08/23 03:52:28;;;;;;;46.80;44.17;;;24.40;60.90;;;;;;5084016;28;20396;-69
2022/08/23 03:54:54;;;;;;;42.58;40.08;;;24.40;60.70;;;;;;5072473;28;20407;-70
2022/08/23 03:57:20;;;;;;;43.53;41.33;;;24.40;60.60;;;;;;5072735;28;20403;-69
2022/08/23 03:59:47;;;;;;;46.27;43.77;;;24.40;60.60;;;;;;5071173;28;20488;-70
2022/08/23 04:02:13;;;;;;;43.65;41.08;;;24.40;60.40;;;;;;5071169;28;20395;-70
2022/08/23 04:04:39;;;;;;;44.88;42.30;;;24.40;60.00;;;;;;5072531;28;20384;-69
2022/08/23 04:07:05;;;;;;;47.13;44.40;;;24.40;60.30;;;;;;5072381;28;20495;-69
2022/08/23 04:09:30;;;;;;;45.93;43.43;;;24.40;60.40;;;;;;5071037;28;20423;-70
2022/08/23 04:11:56;;;;;;;43.80;41.25;;;24.30;60.20;;;;;;5072308;28;20853;-69
2022/08/23 04:14:23;;;;;;;46.92;44.22;;;24.30;60.30;;;;;;5072354;28;20395;-69
2022/08/23 04:16:49;;;;;;;44.75;42.05;;;24.30;59.80;;;;;;5072309;28;20436;-69
2022/08/23 04:19:15;;;;;;;44.63;42.08;;;24.30;59.70;;;;;;5071111;28;20392;-69
2022/08/23 04:21:49;;;;;;;44.75;41.85;;;24.30;59.40;;;;;;5072383;28;20388;-69
2022/08/23 04:24:16;;;;;;;41.15;38.80;;;24.20;59.20;;;;;;5072335;28;20396;-71
2022/08/23 04:26:42;;;;;;;37.65;35.35;;;24.20;58.80;;;;;;5072336;28;20423;-71
2022/08/23 04:29:08;;;;;;;32.92;31.05;;;24.20;58.50;;;;;;5072148;28;20392;-70
2022/08/23 04:31:34;;;;;;;34.63;32.50;;;24.20;58.50;;;;;;5072084;28;20423;-71
2022/08/23 04:34:00;;;;;;;32.57;30.50;;;24.20;58.50;;;;;;5072098;28;20391;-71
2022/08/23 04:36:30;;;;;;;31.33;29.65;;;24.20;58.60;;;;;;5071627;28;20438;-71
2022/08/23 04:38:56;;;;;;;32.60;30.58;;;24.20;58.60;;;;;;5070448;28;20803;-71
2022/08/23 04:44:06;;;;;;;32.03;30.10;;;24.20;58.50;;;;;;5072322;28;20433;-71
2022/08/23 04:46:31;;;;;;;34.10;32.20;;;24.20;58.60;;;;;;5072030;28;20385;-70
2022/08/23 04:48:58;;;;;;;31.15;29.35;;;24.20;58.50;;;;;;5071227;28;20426;-71
2022/08/23 04:51:24;;;;;;;29.52;27.85;;;24.10;58.50;;;;;;5071694;28;20419;-71
2022/08/23 04:53:49;;;;;;;28.17;26.58;;;24.10;58.50;;;;;;5070441;28;20399;-70
2022/08/23 04:56:15;;;;;;;29.23;27.60;;;24.10;58.50;;;;;;5071775;28;20404;-71
2022/08/23 04:58:41;;;;;;;29.58;27.85;;;24.20;58.60;;;;;;5071929;28;20368;-71
2022/08/23 05:01:08;;;;;;;31.10;29.40;;;24.10;58.50;;;;;;5071865;28;20396;-71
2022/08/23 05:03:34;;;;;;;30.02;28.52;;;24.10;58.50;;;;;;5071883;28;20501;-70
2022/08/23 05:06:00;;;;;;;30.30;28.63;;;24.10;58.50;;;;;;5071437;28;20873;-70
2022/08/23 05:08:26;;;;;;;33.50;31.80;;;24.10;58.50;;;;;;5071738;28;20380;-70
2022/08/23 05:10:52;;;;;;;30.67;29.13;;;24.10;58.50;;;;;;5071685;28;20502;-70
2022/08/23 05:13:18;;;;;;;30.53;28.93;;;24.10;58.50;;;;;;5071782;28;21223;-71
2022/08/23 05:15:44;;;;;;;30.42;28.83;;;24.10;58.50;;;;;;5071754;28;20494;-71
2022/08/23 05:18:10;;;;;;;30.58;29.08;;;24.10;58.50;;;;;;5071612;28;20384;-71
2022/08/23 05:20:37;;;;;;;29.65;28.25;;;24.10;58.40;;;;;;5071612;28;20730;-70
2022/08/23 05:23:03;;;;;;;28.27;26.67;;;24.10;58.50;;;;;;5071616;28;21011;-71
2022/08/23 05:28:34;;;;;;;30.98;29.42;;;24.10;58.50;;;;;;5071683;28;20398;-71
2022/08/23 05:31:03;;;;;;;30.07;28.50;;;24.10;58.40;;;;;;5070897;28;20777;-70
2022/08/23 05:33:31;;;;;;;28.92;27.52;;;24.00;58.40;;;;;;5071623;28;20860;-71
2022/08/23 05:35:57;;;;;;;30.42;28.83;;;24.00;58.40;;;;;;5071375;28;20433;-70
2022/08/23 05:38:23;;;;;;;30.77;29.27;;;24.00;58.40;;;;;;5071502;28;20433;-71
2022/08/23 05:40:54;;;;;;;33.45;31.75;;;24.00;58.40;;;;;;5071439;28;20387;-71
2022/08/23 05:43:21;;;;;;;32.57;31.07;;;24.00;58.40;;;;;;5071547;28;20407;-70
2022/08/23 05:45:47;;;;;;;32.40;30.80;;;24.00;58.40;;;;;;5071414;28;20380;-70
2022/08/23 05:48:14;;;;;;;33.65;31.95;;;24.00;58.40;;;;;;5071402;28;20478;-71
2022/08/23 05:50:40;;;;;;;30.07;28.53;;;24.00;58.40;;;;;;5070994;28;21139;-71
2022/08/23 05:53:06;;;;;;;29.88;28.38;;;24.00;58.40;;;;;;5070844;28;20376;-71
2022/08/23 05:55:32;;;;;;;31.33;29.83;;;24.00;58.40;;;;;;5069821;28;20458;-71
2022/08/23 05:57:59;;;;;;;30.77;29.23;;;24.00;58.40;;;;;;5069603;28;20823;-71
2022/08/23 06:00:25;;;;;;;30.17;28.67;;;24.00;58.40;;;;;;5073193;28;20532;-71
2022/08/23 06:02:51;;;;;;;29.92;28.42;;;24.00;58.40;;;;;;5073633;28;20390;-71
2022/08/23 06:05:18;;;;;;;31.57;30.07;;;24.00;58.40;;;;;;5073492;28;20395;-71
2022/08/23 06:07:43;;;;;;;31.43;29.93;;;24.00;58.40;;;;;;5074892;28;20471;-70
2022/08/23 06:10:09;;;;;;;32.83;31.33;;;24.00;58.40;;;;;;5074777;28;20412;-71
2022/08/23 06:12:35;;;;;;;28.40;27.00;;;24.00;58.40;;;;;;5074806;28;20391;-71
2022/08/23 06:15:01;;;;;;;31.13;29.63;;;24.00;58.40;;;;;;5073464;28;20723;-70
2022/08/23 06:17:27;;;;;;;29.50;28.10;;;24.00;58.40;;;;;;5074777;28;20391;-71
2022/08/23 06:19:53;;;;;;;30.27;28.88;;;24.00;58.40;;;;;;5074720;28;20869;-70
2022/08/23 06:22:19;;;;;;;29.90;28.48;;;24.00;58.30;;;;;;5073333;28;20403;-70
2022/08/23 06:24:45;;;;;;;31.50;29.90;;;24.00;58.40;;;;;;5074746;28;20387;-71
2022/08/23 06:27:11;;;;;;;29.17;27.67;;;24.00;58.30;;;;;;5074531;28;20392;-71
2022/08/23 06:29:37;;;;;;;29.88;28.48;;;24.00;58.30;;;;;;5074454;28;20411;-70
2022/08/23 06:32:03;;;;;;;29.10;27.65;;;24.00;58.40;;;;;;5074585;28;20414;-70
2022/08/23 06:34:34;;;;;;;28.77;27.38;;;24.00;58.30;;;;;;5074434;28;20383;-71
2022/08/23 06:37:08;;;;;;;32.33;30.83;;;23.90;58.30;;;;;;5074401;28;20923;-71
2022/08/23 06:39:34;;;;;;;31.98;30.38;;;24.00;58.40;;;;;;5074393;28;20388;-70
2022/08/23 06:42:13;;;;;;;33.75;32.15;;;24.00;58.40;;;;;;5074273;28;20474;-71
2022/08/23 06:44:39;;;;;;;34.08;32.45;;;24.00;58.40;;;;;;5074356;28;20372;-71
2022/08/23 06:47:06;;;;;;;32.63;31.13;;;24.00;58.30;;;;;;5074231;28;20386;-71
2022/08/23 06:49:32;;;;;;;34.92;33.22;;;24.00;58.40;;;;;;5074094;28;20396;-71
2022/08/23 06:51:59;;;;;;;33.10;31.50;;;24.00;58.40;;;;;;5074157;28;20388;-71
2022/08/23 06:54:28;;;;;;;30.13;28.63;;;24.00;58.30;;;;;;5073955;28;20379;-71
2022/08/23 06:56:54;;;;;;;32.88;31.25;;;24.00;58.30;;;;;;5073983;28;20392;-71
2022/08/23 06:59:21;;;;;;;34.90;33.30;;;24.00;58.30;;;;;;5074020;28;20384;-71
2022/08/23 07:01:49;;;;;;;30.17;28.67;;;24.00;58.80;;;;;;5074270;28;20788;-71
2022/08/23 07:04:21;;;;;;;33.23;31.63;;;24.00;58.30;;;;;;5073901;28;20422;-71
2022/08/23 07:06:47;;;;;;;31.73;30.15;;;24.00;58.80;;;;;;5073462;28;20420;-71
2022/08/23 07:09:13;;;;;;;30.83;29.38;;;24.00;58.30;;;;;;5073436;28;20478;-70
2022/08/23 07:11:40;;;;;;;27.55;26.15;;;24.00;58.30;;;;;;5072841;28;20419;-71
2022/08/23 07:14:09;;;;;;;29.23;27.83;;;24.00;58.30;;;;;;5072351;28;20431;-71
2022/08/23 07:16:38;;;;;;;30.27;28.77;;;24.00;58.30;;;;;;5072400;28;20753;-71
2022/08/23 07:19:04;;;;;;;28.92;27.50;;;24.00;58.30;;;;;;5072171;28;20392;-71
2022/08/23 07:21:30;;;;;;;28.52;27.13;;;24.00;58.20;;;;;;5073607;28;20384;-68
2022/08/23 07:23:56;;;;;;;30.88;29.42;;;24.00;58.20;;;;;;5072169;28;20392;-71
2022/08/23 07:26:22;;;;;;;32.23;30.63;;;24.00;58.20;;;;;;5073498;28;20387;-71
2022/08/23 07:28:49;;;;;;;31.27;29.77;;;24.00;58.20;;;;;;5073418;28;20398;-71
2022/08/23 07:31:23;;;;;;;30.52;29.02;;;24.00;58.20;;;;;;5073384;28;20428;-70
2022/08/23 07:33:49;;;;;;;31.70;30.17;;;24.00;58.20;;;;;;5072031;28;20877;-71
2022/08/23 07:36:18;;;;;;;30.90;29.40;;;24.00;58.20;;;;;;5073196;28;20402;-71
2022/08/23 07:38:44;;;;;;;32.05;30.48;;;24.00;58.10;;;;;;5072023;28;20431;-70
2022/08/23 07:41:11;;;;;;;30.77;29.30;;;24.00;58.10;;;;;;5073105;28;20889;-70
2022/08/23 07:43:38;;;;;;;31.42;29.90;;;24.00;58.10;;;;;;5073207;28;20395;-72
2022/08/23 07:46:05;;;;;;;30.50;29.10;;;24.00;58.10;;;;;;5073093;28;20384;-71
2022/08/23 07:48:32;;;;;;;31.08;29.50;;;24.00;58.10;;;;;;5072985;28;20907;-71
2022/08/23 07:51:01;;;;;;;32.17;30.53;;;24.00;58.10;;;;;;5071630;28;20416;-70
2022/08/23 07:53:28;;;;;;;29.70;28.20;;;24.00;58.10;;;;;;5072989;28;20394;-71
2022/08/23 07:55:54;;;;;;;31.40;29.90;;;24.00;58.20;;;;;;5072736;28;20950;-71
2022/08/23 07:58:21;;;;;;;31.10;29.60;;;24.00;58.00;;;;;;5072858;28;20445;-71
2022/08/23 08:00:47;;;;;;;30.10;28.67;;;24.00;58.10;;;;;;5073062;28;20414;-70
2022/08/23 08:03:13;;;;;;;29.08;27.67;;;24.00;58.20;;;;;;5088675;28;20385;-70
2022/08/23 08:05:40;;;;;;;30.35;28.95;;;24.00;58.20;;;;;;5092605;28;20459;-71
2022/08/23 08:08:06;;;;;;;32.05;30.48;;;24.00;58.20;;;;;;5086814;28;20386;-70
2022/08/23 08:10:35;;;;;;;32.95;31.38;;;24.00;58.20;;;;;;5092653;28;20413;-71
2022/08/23 08:13:01;;;;;;;31.83;30.33;;;24.00;58.20;;;;;;5092686;28;20857;-71
2022/08/23 08:15:27;;;;;;;32.38;30.88;;;24.00;58.20;;;;;;5074525;28;20409;-70
2022/08/23 08:17:52;;;;;;;32.47;30.97;;;24.00;58.20;;;;;;5092588;28;20378;-71
2022/08/23 08:20:20;;;;;;;30.95;29.45;;;24.00;58.30;;;;;;5076273;28;20952;-71
2022/08/23 08:22:46;;;;;;;32.10;30.58;;;24.00;58.20;;;;;;5071716;28;20391;-71
2022/08/23 08:25:12;;;;;;;31.58;30.08;;;24.00;58.20;;;;;;5071967;28;20384;-71
2022/08/23 08:27:38;;;;;;;33.30;31.75;;;24.00;58.20;;;;;;5070690;28;20407;-71
2022/08/23 08:30:07;;;;;;;33.47;31.87;;;24.00;58.20;;;;;;5070567;28;20419;-70
2022/08/23 08:32:33;;;;;;;31.80;30.30;;;24.00;58.20;;;;;;5070953;28;20413;-71
2022/08/23 08:34:58;;;;;;;30.27;28.77;;;24.00;58.20;;;;;;5070725;28;20962;-70
2022/08/23 08:37:24;;;;;;;31.42;29.92;;;24.00;58.20;;;;;;5071979;28;20384;-71
2022/08/23 08:39:51;;;;;;;31.30;29.80;;;24.00;58.20;;;;;;5071938;28;20396;-70
2022/08/23 08:42:57;;;;;;;29.17;27.77;;;24.00;58.20;;;;;;5072064;28;20807;-71
2022/08/23 08:45:26;;;;;;;30.83;29.40;;;24.00;58.20;;;;;;5071950;28;20388;-70
2022/08/23 08:48:12;;;;;;;28.13;26.75;;;24.00;58.20;;;;;;5070518;28;20395;-70
2022/08/23 08:50:50;;;;;;;27.52;26.23;;;24.00;58.10;;;;;;5070132;28;20419;-70
2022/08/23 08:53:27;;;;;;;28.55;27.17;;;24.00;58.00;;;;;;5071880;28;20387;-71
2022/08/23 08:55:57;;;;;;;28.27;26.88;;;24.00;57.90;;;;;;5071490;28;20426;-71
2022/08/23 08:58:29;;;;;;;29.20;27.80;;;24.00;57.70;;;;;;5070558;28;20380;-70
2022/08/23 09:00:57;;;;;;;29.38;27.98;;;24.00;57.60;;;;;;5071079;28;20597;-70
2022/08/23 09:03:30;;;;;;;28.85;27.55;;;24.10;57.70;;;;;;5070607;28;20803;-70
2022/08/23 09:06:20;;;;;;;27.00;25.73;;;24.00;57.60;;;;;;5071655;28;20384;-70
2022/08/23 09:08:56;;;;;;;28.70;27.30;;;24.10;57.60;;;;;;5071720;28;20391;-71
2022/08/23 09:11:53;;;;;;;25.92;24.63;;;24.10;57.50;;;;;;5070368;28;20421;-71
2022/08/23 09:14:50;;;;;;;26.52;25.23;;;24.00;57.40;;;;;;5071712;28;20387;-70
2022/08/23 09:17:16;;;;;;;28.08;26.67;;;24.10;57.40;;;;;;5070396;28;20392;-70
2022/08/23 09:19:44;;;;;;;27.87;26.47;;;24.10;57.30;;;;;;5071636;28;20380;-70
2022/08/23 09:22:17;;;;;;;29.85;28.42;;;24.10;57.40;;;;;;5071506;28;20419;-70
2022/08/23 09:24:43;;;;;;;29.70;28.23;;;24.10;57.40;;;;;;5071524;28;20390;-70
2022/08/23 09:27:10;;;;;;;28.88;27.42;;;24.10;57.40;;;;;;5071482;28;20387;-70
2022/08/23 09:29:39;;;;;;;27.48;26.08;;;24.00;57.30;;;;;;5070104;28;20384;-70
2022/08/23 09:32:24;;;;;;;29.50;28.10;;;24.00;57.30;;;;;;5071378;28;20940;-70
2022/08/23 09:34:49;;;;;;;30.23;28.80;;;24.10;57.20;;;;;;5073801;28;20467;-71
2022/08/23 09:37:19;;;;;;;29.23;27.83;;;24.10;57.20;;;;;;5075669;28;20997;-70
2022/08/23 09:40:18;;;;;;;29.58;28.08;;;24.10;57.30;;;;;;5058628;28;20402;-70
2022/08/23 09:42:46;;;;;;;29.08;27.67;;;24.10;57.10;;;;;;5075984;28;20474;-71
2022/08/23 09:45:33;;;;;;;30.73;29.23;;;24.10;57.10;;;;;;5084957;28;20397;-70
2022/08/23 09:47:59;;;;;;;32.30;30.73;;;24.10;57.10;;;;;;5083201;28;20452;-71
2022/08/23 09:50:26;;;;;;;31.87;30.27;;;24.10;57.20;;;;;;5085785;28;20413;-70
2022/08/23 09:53:05;;;;;;;31.60;30.10;;;24.00;57.10;;;;;;5084802;28;20869;-70
2022/08/23 09:55:41;;;;;;;28.77;27.40;;;24.10;57.20;;;;;;5061549;28;20530;-71
2022/08/23 09:58:30;;;;;;;31.65;30.15;;;24.10;57.10;;;;;;5082741;28;20386;-71
2022/08/23 10:01:34;;;;;;;33.25;31.73;;;24.10;57.70;;;;;;5082806;28;20408;-70
2022/08/23 10:04:21;;;;;;;31.55;30.05;;;24.10;57.20;;;;;;5001557;28;20950;-70
2022/08/23 10:06:48;;;;;;;31.60;30.10;;;24.10;57.10;;;;;;5010258;28;20404;-70
2022/08/23 10:09:32;;;;;;;32.08;30.52;;;24.10;57.10;;;;;;5039731;28;20757;-71
2022/08/23 10:11:59;;;;;;;31.75;30.25;;;24.10;57.10;;;;;;5060639;28;20909;-70
2022/08/23 10:14:27;;;;;;;31.27;29.77;;;24.10;57.10;;;;;;5083605;28;20381;-70
2022/08/23 10:16:55;;;;;;;29.98;28.55;;;24.10;57.10;;;;;;5076864;28;20389;-71
2022/08/23 10:19:46;;;;;;;30.13;28.63;;;24.10;57.00;;;;;;5094970;28;20580;-70
2022/08/23 10:22:23;;;;;;;30.27;28.67;;;24.10;57.10;;;;;;5094884;28;20443;-70
2022/08/23 10:25:01;;;;;;;30.08;28.55;;;24.10;57.20;;;;;;5076675;28;20397;-70
2022/08/23 10:31:01;;;;;;;27.00;25.10;;;24.10;57.20;;;;;;5073139;28;20425;-70
2022/08/23 10:33:47;;;;;;;29.67;27.70;;;24.20;58.10;;;;;;5095034;28;20401;-70
2022/08/23 10:36:45;;;;;;;29.87;28.17;;;24.30;58.10;;;;;;5094625;28;20420;-70
2022/08/23 10:39:25;;;;;;;28.65;27.13;;;24.30;57.80;;;;;;5076357;28;20750;-70
2022/08/23 10:42:06;;;;;;;28.55;27.00;;;24.30;57.70;;;;;;5094352;28;20410;-71
2022/08/23 10:44:58;;;;;;;28.45;26.95;;;24.30;57.60;;;;;;5094371;28;20382;-72
2022/08/23 10:47:26;;;;;;;31.80;29.97;;;24.20;57.70;;;;;;5075677;28;20895;-71
2022/08/23 10:49:53;;;;;;;29.55;27.98;;;24.20;58.00;;;;;;5075983;28;20459;-71
2022/08/23 10:52:27;;;;;;;30.30;28.90;;;24.20;58.00;;;;;;5076222;28;20435;-70
2022/08/23 10:55:05;;;;;;;31.65;30.05;;;24.20;58.00;;;;;;5093947;28;20470;-70
2022/08/23 10:57:39;;;;;;;29.08;27.60;;;24.20;58.00;;;;;;5073944;28;20404;-70
2022/08/23 11:00:16;;;;;;;29.52;28.13;;;24.20;57.80;;;;;;5073829;28;20426;-71
2022/08/23 11:03:06;;;;;;;29.55;28.08;;;24.20;57.80;;;;;;5073989;28;20384;-70
2022/08/23 11:05:35;;;;;;;29.17;27.67;;;24.20;57.70;;;;;;5073788;28;20422;-70
2022/08/23 11:08:07;;;;;;;29.67;28.25;;;24.20;57.50;;;;;;5073626;28;20916;-70
2022/08/23 11:10:45;;;;;;;29.30;27.90;;;24.20;57.60;;;;;;5073051;28;20416;-70
2022/08/23 11:13:17;;;;;;;31.20;29.70;;;24.20;57.60;;;;;;5073234;28;20418;-69
2022/08/23 11:15:53;;;;;;;29.77;28.38;;;24.20;57.50;;;;;;5073639;28;20415;-70
2022/08/23 11:18:37;;;;;;;29.30;27.85;;;24.20;57.50;;;;;;5073514;28;20392;-71
2022/08/23 11:21:24;;;;;;;30.23;28.63;;;24.20;57.50;;;;;;5073549;28;20386;-70
2022/08/23 11:23:58;;;;;;;27.80;26.50;;;24.20;57.60;;;;;;5073367;28;20388;-70
2022/08/23 11:26:29;;;;;;;28.42;27.05;;;24.20;57.60;;;;;;5073313;28;20384;-69
2022/08/23 11:29:05;;;;;;;28.45;26.98;;;24.20;57.50;;;;;;5073291;28;20388;-70
2022/08/23 11:31:37;;;;;;;28.98;27.63;;;24.20;57.70;;;;;;5083296;28;20422;-70
2022/08/23 11:34:08;;;;;;;29.08;27.65;;;24.20;57.60;;;;;;5093531;28;20378;-69
2022/08/23 11:36:34;;;;;;;31.42;29.83;;;24.20;57.60;;;;;;5092658;28;20398;-69
2022/08/23 11:39:12;;;;;;;32.90;31.30;;;24.20;57.60;;;;;;5093522;28;20794;-69
2022/08/23 11:41:53;;;;;;;30.20;28.50;;;24.20;57.50;;;;;;5093464;28;20397;-69
2022/08/23 11:44:24;;;;;;;28.30;26.80;;;24.20;57.40;;;;;;5075286;28;20410;-70
2022/08/23 11:46:54;;;;;;;30.15;28.55;;;24.20;57.40;;;;;;5093344;28;20388;-70
2022/08/23 11:49:32;;;;;;;29.60;28.10;;;24.20;57.40;;;;;;5093293;28;20900;-70
2022/08/23 11:52:16;;;;;;;30.08;28.63;;;24.30;57.40;;;;;;5075080;28;20402;-70
2022/08/23 11:55:29;;;;;;;31.17;29.58;;;24.20;57.40;;;;;;5090010;28;20461;-71
2022/08/23 11:58:16;;;;;;;31.63;30.08;;;24.30;57.30;;;;;;5072462;28;20906;-70
2022/08/23 12:00:54;;;;;;;34.70;33.00;;;24.20;57.70;;;;;;5079929;28;20390;-70
2022/08/23 12:03:34;;;;;;;33.95;32.25;;;24.30;57.30;;;;;;5062161;28;20390;-70
2022/08/23 12:06:07;;;;;;;34.45;32.80;;;24.30;57.40;;;;;;5079174;28;20467;-69
2022/08/23 12:08:47;;;;;;;32.53;30.93;;;24.30;57.20;;;;;;5080915;28;20431;-70
2022/08/23 12:11:15;;;;;;;31.52;30.00;;;24.30;57.30;;;;;;5079294;28;20499;-69
2022/08/23 12:13:48;;;;;;;34.45;32.75;;;24.30;57.30;;;;;;5081939;28;20380;-69
2022/08/23 12:16:18;;;;;;;33.80;32.20;;;24.30;57.10;;;;;;5079584;28;20473;-69
2022/08/23 12:18:52;;;;;;;31.08;29.58;;;24.30;57.20;;;;;;5082235;28;20884;-70
2022/08/23 12:21:38;;;;;;;31.35;29.75;;;24.30;57.30;;;;;;5061768;28;20763;-70
2022/08/23 12:24:25;;;;;;;30.45;29.05;;;24.30;57.10;;;;;;5061418;28;20390;-71
2022/08/23 12:27:09;;;;;;;33.30;31.70;;;24.30;56.80;;;;;;5078865;28;20396;-69
2022/08/23 12:29:53;;;;;;;32.92;31.33;;;24.30;57.00;;;;;;5081143;28;20438;-70
2022/08/23 12:32:34;;;;;;;33.25;31.67;;;24.30;57.10;;;;;;5061344;28;20441;-70
2022/08/23 12:35:17;;;;;;;33.03;31.35;;;24.30;57.00;;;;;;5079299;28;20382;-69
2022/08/23 12:37:58;;;;;;;35.80;34.10;;;24.40;56.90;;;;;;5061306;28;20405;-71
2022/08/23 12:40:35;;;;;;;29.73;28.20;;;24.40;57.00;;;;;;5061165;28;20443;-69
2022/08/23 12:43:05;;;;;;;31.58;30.08;;;24.40;57.00;;;;;;5061164;28;20439;-71
2022/08/23 12:45:40;;;;;;;30.40;28.90;;;24.40;57.00;;;;;;5060875;28;20452;-70
2022/08/23 12:48:10;;;;;;;30.45;29.05;;;24.40;57.50;;;;;;5061784;28;20384;-69
2022/08/23 12:50:39;;;;;;;32.45;30.85;;;24.40;57.00;;;;;;5080949;28;20467;-70
2022/08/23 12:53:24;;;;;;;32.50;30.90;;;24.40;56.90;;;;;;5055287;28;20390;-70
2022/08/23 12:55:51;;;;;;;31.40;29.90;;;24.40;56.70;;;;;;5078838;28;20492;-71
2022/08/23 12:58:26;;;;;;;32.92;31.33;;;24.40;56.80;;;;;;5039081;28;20400;-71
2022/08/23 13:00:59;;;;;;;33.47;31.88;;;24.40;56.70;;;;;;5060869;28;20393;-70